createdAt,value
2022-10-29T00:00:57.989Z,17.00
2022-10-29T00:03:26.063Z,17.00
2022-10-29T00:06:02.525Z,17.10
2022-10-29T00:08:33.316Z,18.20
2022-10-29T00:11:26.767Z,17.00
2022-10-29T00:13:58.156Z,16.40
2022-10-29T00:16:35.546Z,18.60
2022-10-29T00:19:04.134Z,16.90
2022-10-29T00:21:31.790Z,16.90
2022-10-29T00:23:58.914Z,16.80
2022-10-29T00:26:29.275Z,16.80
2022-10-29T00:28:57.025Z,18.20
2022-10-29T00:31:25.029Z,17.40
2022-10-29T00:33:55.451Z,16.60
2022-10-29T00:36:27.591Z,17.60
2022-10-29T00:38:54.912Z,16.50
2022-10-29T00:41:26.615Z,16.50
2022-10-29T00:44:24.921Z,18.00
2022-10-29T00:47:03.407Z,16.40
2022-10-29T00:49:34.781Z,16.40
2022-10-29T00:52:04.921Z,17.20
2022-10-29T00:54:37.026Z,16.40
2022-10-29T00:57:17.286Z,16.30
2022-10-29T01:02:14.929Z,16.20
2022-10-29T01:04:43.131Z,16.10
2022-10-29T01:07:11.066Z,16.40
2022-10-29T01:09:38.467Z,17.80
2022-10-29T01:12:48.183Z,16.80
2022-10-29T01:15:36.739Z,16.00
2022-10-29T01:18:19.561Z,15.90
2022-10-29T01:21:49.761Z,15.90
2022-10-29T01:24:35.425Z,15.90
2022-10-29T01:27:29.396Z,15.80
2022-10-29T01:30:06.131Z,15.80
2022-10-29T01:33:00.025Z,15.70
2022-10-29T01:35:57.501Z,15.70
2022-10-29T01:38:56.782Z,15.70
2022-10-29T01:41:48.475Z,15.60
2022-10-29T01:44:51.129Z,15.60
2022-10-29T01:47:27.719Z,16.60
2022-10-29T01:50:01.689Z,15.50
2022-10-29T01:52:34.224Z,15.40
2022-10-29T01:55:02.958Z,15.40
2022-10-29T01:57:38.129Z,17.30
2022-10-29T02:00:17.242Z,15.40
2022-10-29T02:03:19.907Z,15.40
2022-10-29T02:06:29.066Z,15.30
2022-10-29T02:09:28.685Z,15.30
2022-10-29T02:12:16.154Z,15.30
2022-10-29T02:15:03.295Z,16.30
2022-10-29T02:17:34.874Z,15.30
2022-10-29T02:20:12.877Z,15.30
2022-10-29T02:22:39.781Z,15.30
2022-10-29T02:25:08.183Z,15.30
2022-10-29T02:27:35.429Z,15.30
2022-10-29T02:30:02.378Z,17.30
2022-10-29T02:32:29.259Z,15.30
2022-10-29T02:34:56.018Z,15.30
2022-10-29T02:37:22.835Z,15.30
2022-10-29T02:39:49.607Z,15.30
2022-10-29T02:42:17.121Z,15.40
2022-10-29T02:44:43.924Z,15.40
2022-10-29T02:47:10.749Z,15.40
2022-10-29T02:49:37.575Z,15.40
2022-10-29T02:52:04.731Z,15.30
2022-10-29T02:54:31.948Z,15.30
2022-10-29T02:56:58.832Z,15.30
2022-10-29T02:59:26.916Z,15.30
2022-10-29T03:01:54.006Z,15.30
2022-10-29T03:04:20.978Z,17.40
2022-10-29T03:06:47.825Z,15.20
2022-10-29T03:09:14.718Z,15.40
2022-10-29T03:11:41.670Z,15.20
2022-10-29T03:14:08.538Z,15.30
2022-10-29T03:16:36.293Z,15.20
2022-10-29T03:19:03.878Z,15.20
2022-10-29T03:21:30.747Z,15.20
2022-10-29T03:23:57.655Z,15.20
2022-10-29T03:26:24.564Z,15.20
2022-10-29T03:28:51.339Z,14.80
2022-10-29T03:31:18.229Z,15.20
2022-10-29T03:33:45.052Z,15.60
2022-10-29T03:36:12.153Z,15.70
2022-10-29T03:38:39.025Z,15.10
2022-10-29T03:41:10.682Z,17.30
2022-10-29T03:43:39.204Z,15.10
2022-10-29T03:46:06.561Z,15.10
2022-10-29T03:48:34.256Z,16.00
2022-10-29T03:51:08.295Z,15.80
2022-10-29T03:53:36.990Z,17.30
2022-10-29T03:56:04.198Z,15.20
2022-10-29T03:58:31.131Z,15.20
2022-10-29T04:00:59.133Z,15.90
2022-10-29T04:03:28.987Z,15.30
2022-10-29T04:05:56.922Z,15.40
2022-10-29T04:08:23.912Z,15.40
2022-10-29T04:10:52.477Z,15.50
2022-10-29T04:13:20.068Z,15.50
2022-10-29T04:15:47.402Z,15.60
2022-10-29T04:18:14.325Z,15.60
2022-10-29T04:20:56.390Z,15.60
2022-10-29T04:29:03.724Z,15.80
2022-10-29T04:31:30.661Z,16.50
2022-10-29T04:33:57.648Z,15.90
2022-10-29T04:36:24.534Z,15.90
2022-10-29T04:38:51.327Z,15.90
2022-10-29T04:41:18.243Z,15.90
2022-10-29T04:43:45.122Z,15.90
2022-10-29T04:46:12.437Z,16.00
2022-10-29T04:48:39.448Z,16.00
2022-10-29T04:51:06.843Z,16.00
2022-10-29T04:53:33.673Z,16.00
2022-10-29T04:56:03.428Z,17.20
2022-10-29T04:58:30.245Z,16.00
2022-10-29T05:01:07.326Z,16.10
2022-10-29T05:03:34.795Z,17.10
2022-10-29T05:06:06.130Z,16.10
2022-10-29T05:08:33.402Z,16.10
2022-10-29T05:11:05.498Z,17.20
2022-10-29T05:13:34.145Z,16.20
2022-10-29T05:16:01.646Z,18.00
2022-10-29T05:18:28.507Z,16.20
2022-10-29T05:20:56.447Z,16.20
2022-10-29T05:23:23.849Z,16.20
2022-10-29T05:25:52.099Z,16.20
2022-10-29T05:28:22.770Z,16.20
2022-10-29T05:30:52.996Z,17.20
2022-10-29T05:33:24.661Z,16.20
2022-10-29T05:35:52.305Z,16.30
2022-10-29T05:38:19.209Z,16.50
2022-10-29T05:40:46.120Z,18.30
2022-10-29T05:43:15.856Z,16.30
2022-10-29T05:45:43.648Z,17.40
2022-10-29T05:50:44.183Z,16.40
2022-10-29T05:53:14.063Z,16.40
2022-10-29T05:55:42.028Z,16.40
2022-10-29T05:58:13.762Z,16.50
2022-10-29T06:00:44.620Z,17.50
2022-10-29T06:03:18.006Z,16.50
2022-10-29T06:05:47.011Z,17.10
2022-10-29T06:08:14.158Z,17.70
2022-10-29T06:10:41.313Z,17.60
2022-10-29T06:13:21.799Z,16.60
2022-10-29T06:15:50.478Z,16.60
2022-10-29T06:18:17.332Z,18.20
2022-10-29T06:20:44.282Z,16.60
2022-10-29T06:23:11.654Z,16.70
2022-10-29T06:25:38.674Z,16.80
2022-10-29T06:28:08.894Z,17.90
2022-10-29T06:30:36.845Z,16.70
2022-10-29T06:33:05.015Z,16.70
2022-10-29T06:35:32.285Z,16.80
2022-10-29T06:37:59.884Z,18.00
2022-10-29T06:40:27.432Z,18.30
2022-10-29T06:43:02.874Z,16.80
2022-10-29T06:45:31.444Z,18.30
2022-10-29T06:47:58.900Z,16.70
2022-10-29T06:50:26.889Z,16.70
2022-10-29T06:53:05.941Z,16.70
2022-10-29T06:55:36.584Z,16.70
2022-10-29T06:58:10.906Z,16.70
2022-10-29T07:00:38.002Z,17.60
2022-10-29T07:03:05.251Z,17.70
2022-10-29T07:05:33.657Z,16.80
2022-10-29T07:08:02.456Z,16.80
2022-10-29T07:10:32.126Z,16.90
2022-10-29T07:12:59.921Z,17.80
2022-10-29T07:15:30.727Z,16.90
2022-10-29T07:18:06.586Z,16.90
2022-10-29T07:20:40.304Z,16.90
2022-10-29T07:23:08.404Z,16.90
2022-10-29T07:25:37.600Z,16.90
2022-10-29T07:28:23.135Z,17.00
2022-10-29T07:30:51.584Z,17.00
2022-10-29T07:33:18.750Z,17.10
2022-10-29T07:35:46.402Z,18.50
2022-10-29T07:38:13.868Z,19.20
2022-10-29T07:40:49.281Z,17.20
2022-10-29T07:43:17.818Z,17.30
2022-10-29T07:45:53.911Z,17.40
2022-10-29T07:48:21.708Z,17.50
2022-10-29T07:50:49.356Z,19.70
2022-10-29T07:53:16.754Z,17.60
2022-10-29T07:55:43.587Z,17.70
2022-10-29T07:58:12.481Z,17.80
2022-10-29T08:00:42.040Z,17.90
2022-10-29T08:03:12.307Z,18.10
2022-10-29T08:05:42.587Z,18.20
2022-10-29T08:08:10.220Z,18.40
2022-10-29T08:10:37.166Z,18.50
2022-10-29T08:13:06.465Z,18.70
2022-10-29T08:15:34.807Z,20.00
2022-10-29T08:18:03.579Z,19.00
2022-10-29T08:20:30.520Z,19.20
2022-10-29T08:23:00.780Z,19.30
2022-10-29T08:25:28.110Z,19.50
2022-10-29T08:28:04.192Z,19.60
2022-10-29T08:30:32.459Z,19.60
2022-10-29T08:33:00.811Z,19.70
2022-10-29T08:35:28.725Z,19.80
2022-10-29T08:37:55.657Z,19.80
2022-10-29T08:40:45.340Z,19.90
2022-10-29T08:43:29.929Z,20.00
2022-10-29T08:45:57.561Z,20.10
2022-10-29T08:48:47.337Z,20.20
2022-10-29T08:51:25.749Z,20.40
2022-10-29T08:54:24.993Z,20.50
2022-10-29T08:56:50.455Z,20.70
2022-10-29T08:59:22.487Z,20.90
2022-10-29T09:01:51.148Z,21.00
2022-10-29T09:04:38.268Z,21.70
2022-10-29T09:07:34.406Z,21.30
2022-10-29T09:10:37.372Z,21.40
2022-10-29T09:13:28.466Z,21.50
2022-10-29T09:16:19.006Z,21.90
2022-10-29T09:19:10.970Z,21.70
2022-10-29T09:22:01.059Z,21.90
2022-10-29T09:25:06.658Z,22.00
2022-10-29T09:28:07.287Z,22.20
2022-10-29T09:31:04.707Z,22.40
2022-10-29T09:33:32.481Z,22.60
2022-10-29T09:36:01.204Z,22.70
2022-10-29T09:38:42.177Z,22.80
2022-10-29T09:41:11.872Z,22.90
2022-10-29T09:43:57.033Z,22.90
2022-10-29T09:46:48.323Z,23.00
2022-10-29T09:50:08.785Z,23.10
2022-10-29T09:52:41.775Z,23.30
2022-10-29T09:55:24.225Z,24.10
2022-10-29T09:57:52.399Z,23.50
2022-10-29T10:00:26.341Z,23.60
2022-10-29T10:03:16.143Z,23.70
2022-10-29T10:06:05.030Z,23.90
2022-10-29T10:08:34.461Z,24.10
2022-10-29T10:11:07.345Z,25.40
2022-10-29T10:13:54.058Z,24.50
2022-10-29T10:16:27.985Z,26.70
2022-10-29T10:18:55.226Z,24.90
2022-10-29T10:21:24.869Z,25.40
2022-10-29T10:23:54.243Z,25.30
2022-10-29T10:26:43.306Z,25.60
2022-10-29T10:29:19.423Z,25.60
2022-10-29T10:31:55.415Z,25.90
2022-10-29T10:34:39.143Z,26.00
2022-10-29T10:37:11.160Z,26.10
2022-10-29T10:39:52.687Z,26.10
2022-10-29T10:42:37.419Z,26.10
2022-10-29T10:45:37.600Z,26.00
2022-10-29T10:48:11.167Z,26.00
2022-10-29T10:50:38.401Z,26.00
2022-10-29T10:53:22.354Z,26.00
2022-10-29T10:55:57.462Z,25.90
2022-10-29T10:58:35.514Z,26.10
2022-10-29T11:01:28.508Z,26.00
2022-10-29T11:04:22.832Z,26.20
2022-10-29T11:06:55.283Z,26.30
2022-10-29T11:09:37.297Z,26.40
2022-10-29T11:12:15.479Z,26.60
2022-10-29T11:14:52.331Z,26.70
2022-10-29T11:17:32.900Z,26.90
2022-10-29T11:20:11.536Z,27.10
2022-10-29T11:23:16.328Z,27.30
2022-10-29T11:26:16.052Z,27.50
2022-10-29T11:29:02.334Z,27.70
2022-10-29T11:31:55.417Z,27.90
2022-10-29T11:34:45.383Z,28.10
2022-10-29T11:37:42.992Z,28.30
2022-10-29T11:40:23.606Z,28.50
2022-10-29T11:42:50.583Z,28.80
2022-10-29T11:46:11.887Z,29.00
2022-10-29T11:48:54.663Z,29.30
2022-10-29T11:51:57.981Z,29.50
2022-10-29T11:54:56.344Z,29.70
2022-10-29T11:57:48.394Z,29.90
2022-10-29T12:00:19.470Z,30.10
2022-10-29T12:03:15.376Z,30.20
2022-10-29T12:06:21.819Z,30.30
2022-10-29T12:09:01.046Z,30.40
2022-10-29T12:11:43.212Z,30.40
2022-10-29T12:14:44.920Z,30.40
2022-10-29T12:18:05.301Z,30.40
2022-10-29T12:20:55.073Z,30.50
2022-10-29T12:24:09.757Z,30.50
2022-10-29T12:26:43.522Z,30.60
2022-10-29T12:29:40.133Z,30.60
2022-10-29T12:32:38.847Z,30.60
2022-10-29T12:35:40.866Z,30.60
2022-10-29T12:38:40.974Z,30.60
2022-10-29T12:41:19.125Z,30.70
2022-10-29T12:43:47.065Z,30.70
2022-10-29T12:46:54.543Z,30.70
2022-10-29T12:49:45.073Z,30.70
2022-10-29T12:52:42.520Z,30.70
2022-10-29T12:55:13.916Z,30.70
2022-10-29T12:57:40.917Z,30.70
2022-10-29T13:00:27.222Z,30.70
2022-10-29T13:02:55.932Z,30.70
2022-10-29T13:05:36.587Z,30.60
2022-10-29T13:08:03.305Z,30.60
2022-10-29T13:10:33.061Z,30.50
2022-10-29T13:13:02.932Z,30.40
2022-10-29T13:15:38.122Z,30.20
2022-10-29T13:18:51.239Z,30.10
2022-10-29T13:21:59.891Z,30.00
2022-10-29T13:24:28.505Z,29.90
2022-10-29T13:26:58.096Z,29.90
2022-10-29T13:29:41.045Z,29.80
2022-10-29T13:32:08.285Z,29.80
2022-10-29T13:35:15.104Z,29.70
2022-10-29T13:38:12.830Z,29.60
2022-10-29T13:40:53.348Z,29.50
2022-10-29T13:43:22.178Z,29.40
2022-10-29T13:46:02.542Z,29.30
2022-10-29T13:48:36.037Z,29.10
2022-10-29T13:51:14.428Z,29.00
2022-10-29T13:54:00.024Z,28.90
2022-10-29T13:56:58.195Z,28.80
2022-10-29T14:00:15.678Z,28.70
2022-10-29T14:02:42.468Z,28.60
2022-10-29T14:05:15.109Z,28.60
2022-10-29T14:08:15.266Z,28.50
2022-10-29T14:10:42.017Z,28.40
2022-10-29T14:13:30.006Z,28.40
2022-10-29T14:16:10.909Z,28.30
2022-10-29T14:18:44.188Z,28.20
2022-10-29T14:21:27.885Z,28.20
2022-10-29T14:24:21.162Z,28.10
2022-10-29T14:26:48.029Z,28.10
2022-10-29T14:29:23.698Z,28.00
2022-10-29T14:32:13.270Z,28.00
2022-10-29T14:34:41.659Z,28.00
2022-10-29T14:37:21.951Z,27.90
2022-10-29T14:40:00.789Z,28.00
2022-10-29T14:42:40.268Z,28.00
2022-10-29T14:45:23.060Z,27.80
2022-10-29T14:47:58.304Z,27.80
2022-10-29T14:50:28.409Z,27.70
2022-10-29T14:53:07.551Z,27.60
2022-10-29T14:55:40.054Z,27.60
2022-10-29T14:58:30.901Z,27.50
2022-10-29T15:01:09.016Z,27.40
2022-10-29T15:03:36.362Z,27.30
2022-10-29T15:06:25.584Z,27.20
2022-10-29T15:08:56.880Z,27.10
2022-10-29T15:11:36.779Z,27.00
2022-10-29T15:14:24.264Z,26.90
2022-10-29T15:16:51.580Z,27.00
2022-10-29T15:19:19.049Z,26.70
2022-10-29T15:21:46.288Z,26.60
2022-10-29T15:24:21.801Z,26.60
2022-10-29T15:26:54.868Z,26.40
2022-10-29T15:29:33.194Z,26.30
2022-10-29T15:32:01.374Z,26.20
2022-10-29T15:34:35.309Z,26.10
2022-10-29T15:37:32.379Z,25.90
2022-10-29T15:40:26.250Z,25.80
2022-10-29T15:42:54.787Z,25.60
2022-10-29T15:45:28.208Z,25.50
2022-10-29T15:47:58.176Z,25.40
2022-10-29T15:50:41.498Z,25.20
2022-10-29T15:53:16.815Z,25.20
2022-10-29T15:55:44.329Z,25.00
2022-10-29T15:58:24.702Z,24.90
2022-10-29T16:00:51.743Z,24.70
2022-10-29T16:03:24.793Z,24.60
2022-10-29T16:05:56.829Z,24.50
2022-10-29T16:08:49.997Z,24.50
2022-10-29T16:11:22.604Z,24.30
2022-10-29T16:13:54.832Z,24.20
2022-10-29T16:16:25.425Z,24.20
2022-10-29T16:18:53.291Z,24.00
2022-10-29T16:21:24.212Z,24.00
2022-10-29T16:23:52.216Z,24.20
2022-10-29T16:26:23.960Z,23.80
2022-10-29T16:28:53.145Z,23.70
2022-10-29T16:31:29.049Z,23.70
2022-10-29T16:34:02.744Z,23.60
2022-10-29T16:36:29.644Z,23.80
2022-10-29T16:38:56.448Z,23.60
2022-10-29T16:41:23.383Z,23.50
2022-10-29T16:43:50.157Z,23.50
2022-10-29T16:46:17.130Z,23.50
2022-10-29T16:48:44.221Z,23.40
2022-10-29T16:51:11.132Z,23.40
2022-10-29T16:53:37.936Z,23.30
2022-10-29T16:56:05.771Z,23.30
2022-10-29T16:58:32.539Z,23.20
2022-10-29T17:01:08.463Z,23.20
2022-10-29T17:03:35.936Z,23.20
2022-10-29T17:06:09.200Z,23.10
2022-10-29T17:08:37.653Z,23.00
2022-10-29T17:11:08.687Z,23.00
2022-10-29T17:13:36.365Z,24.00
2022-10-29T17:16:08.675Z,22.90
2022-10-29T17:18:36.924Z,22.80
2022-10-29T17:21:04.231Z,22.80
2022-10-29T17:23:32.591Z,22.70
2022-10-29T17:26:00.332Z,22.60
2022-10-29T17:28:28.545Z,22.50
2022-10-29T17:30:55.393Z,22.50
2022-10-29T17:33:22.244Z,23.80
2022-10-29T17:35:49.194Z,22.40
2022-10-29T17:38:16.235Z,22.40
2022-10-29T17:40:46.041Z,22.30
2022-10-29T17:43:13.135Z,22.90
2022-10-29T17:45:42.062Z,22.20
2022-10-29T17:48:08.987Z,22.20
2022-10-29T17:50:36.181Z,22.10
2022-10-29T17:53:03.932Z,22.00
2022-10-29T17:55:30.876Z,22.00
2022-10-29T17:57:57.914Z,21.90
2022-10-29T18:00:25.952Z,21.80
2022-10-29T18:02:52.832Z,21.80
2022-10-29T18:05:19.750Z,21.70
2022-10-29T18:07:46.577Z,21.70
2022-10-29T18:10:13.391Z,21.60
2022-10-29T18:12:40.155Z,22.60
2022-10-29T18:15:07.904Z,21.70
2022-10-29T18:17:34.831Z,21.50
2022-10-29T18:20:01.787Z,21.50
2022-10-29T18:22:28.601Z,21.40
2022-10-29T18:24:55.442Z,21.30
2022-10-29T18:27:22.225Z,21.30
2022-10-29T18:29:49.284Z,21.20
2022-10-29T18:32:16.610Z,21.20
2022-10-29T18:34:43.502Z,19.60
2022-10-29T18:37:10.293Z,21.10
2022-10-29T18:39:38.064Z,21.00
2022-10-29T18:42:05.434Z,21.00
2022-10-29T18:44:32.350Z,20.90
2022-10-29T18:46:59.148Z,21.50
2022-10-29T18:49:27.647Z,21.30
2022-10-29T18:51:54.678Z,20.70
2022-10-29T18:54:21.904Z,20.70
2022-10-29T18:56:48.752Z,20.60
2022-10-29T18:59:15.589Z,21.30
2022-10-29T19:01:42.783Z,20.50
2022-10-29T19:04:14.357Z,22.20
2022-10-29T19:06:41.372Z,20.40
2022-10-29T19:09:10.878Z,20.60
2022-10-29T19:11:38.247Z,20.30
2022-10-29T19:14:11.498Z,20.30
2022-10-29T19:16:38.501Z,20.30
2022-10-29T19:19:11.658Z,20.30
2022-10-29T19:21:40.373Z,20.30
2022-10-29T19:24:08.317Z,20.20
2022-10-29T19:26:36.352Z,20.20
2022-10-29T19:29:05.433Z,20.30
2022-10-29T19:31:34.474Z,20.20
2022-10-29T19:34:05.998Z,20.10
2022-10-29T19:36:34.821Z,20.10
2022-10-29T19:39:01.802Z,20.10
2022-10-29T19:41:29.395Z,20.00
2022-10-29T19:44:01.177Z,20.00
2022-10-29T19:46:28.866Z,19.90
2022-10-29T19:48:58.289Z,20.30
2022-10-29T19:51:25.999Z,19.90
2022-10-29T19:53:53.230Z,19.80
2022-10-29T19:56:21.345Z,19.70
2022-10-29T19:58:48.535Z,19.70
2022-10-29T20:01:18.457Z,21.10
2022-10-29T20:03:46.780Z,19.60
2022-10-29T20:06:14.914Z,19.50
2022-10-29T20:08:42.379Z,19.50
2022-10-29T20:11:09.657Z,19.40
2022-10-29T20:13:37.788Z,21.00
2022-10-29T20:16:19.963Z,19.30
2022-10-29T20:18:48.560Z,19.30
2022-10-29T20:21:16.476Z,19.20
2022-10-29T20:23:44.736Z,19.80
2022-10-29T20:26:11.802Z,19.20
2022-10-29T20:28:39.382Z,19.10
2022-10-29T20:31:17.976Z,19.50
2022-10-29T20:33:57.616Z,19.10
2022-10-29T20:36:28.423Z,19.10
2022-10-29T20:38:56.840Z,19.10
2022-10-29T20:41:24.240Z,19.10
2022-10-29T20:43:59.738Z,19.10
2022-10-29T20:46:27.583Z,19.00
2022-10-29T20:48:54.455Z,19.00
2022-10-29T20:51:22.976Z,19.00
2022-10-29T20:53:51.106Z,19.00
2022-10-29T20:56:19.693Z,18.90
2022-10-29T20:58:46.533Z,18.90
2022-10-29T21:01:17.492Z,18.90
2022-10-29T21:03:45.525Z,18.80
2022-10-29T21:06:16.906Z,18.80
2022-10-29T21:08:48.903Z,18.80
2022-10-29T21:11:18.432Z,18.70
2022-10-29T21:13:46.202Z,18.70
2022-10-29T21:16:22.459Z,18.70
2022-10-29T21:18:53.110Z,18.70
2022-10-29T21:21:20.376Z,18.60
2022-10-29T21:23:48.251Z,19.30
2022-10-29T21:26:18.799Z,18.60
2022-10-29T21:28:47.248Z,18.60
2022-10-29T21:31:14.068Z,18.60
2022-10-29T21:33:41.220Z,18.60
2022-10-29T21:36:11.118Z,18.60
2022-10-29T21:38:37.912Z,18.50
2022-10-29T21:41:04.821Z,18.50
2022-10-29T21:43:32.168Z,18.50
2022-10-29T21:45:59.277Z,18.60
2022-10-29T21:48:29.368Z,18.50
2022-10-29T21:51:09.840Z,18.50
2022-10-29T21:53:37.226Z,18.40
2022-10-29T21:56:08.135Z,18.40
2022-10-29T21:58:35.021Z,18.40
2022-10-29T22:01:08.181Z,18.30
2022-10-29T22:03:38.646Z,18.30
2022-10-29T22:06:12.765Z,18.30
2022-10-29T22:08:40.440Z,18.20
2022-10-29T22:11:08.416Z,18.20
2022-10-29T22:13:35.710Z,18.20
2022-10-29T22:16:04.885Z,18.00
2022-10-29T22:18:32.273Z,18.00
2022-10-29T22:21:12.902Z,17.90
2022-10-29T22:23:54.218Z,17.80
2022-10-29T22:26:25.469Z,17.80
2022-10-29T22:28:52.490Z,17.70
2022-10-29T22:31:21.583Z,17.60
2022-10-29T22:33:48.972Z,19.20
2022-10-29T22:36:22.372Z,17.50
2022-10-29T22:38:57.686Z,17.40
2022-10-29T22:41:26.185Z,17.30
2022-10-29T22:43:54.638Z,17.30
2022-10-29T22:46:22.680Z,17.20
2022-10-29T22:48:49.460Z,17.10
2022-10-29T22:51:24.352Z,17.10
2022-10-29T22:53:53.275Z,17.00
2022-10-29T22:56:30.969Z,16.90
2022-10-29T22:58:58.415Z,16.80
2022-10-29T23:01:31.573Z,16.80
2022-10-29T23:03:59.164Z,16.70
2022-10-29T23:06:27.163Z,16.70
2022-10-29T23:08:58.162Z,17.20
2022-10-29T23:11:30.169Z,16.60
2022-10-29T23:13:59.968Z,16.60
2022-10-29T23:16:30.323Z,16.60
2022-10-29T23:19:00.954Z,16.50
2022-10-29T23:21:28.607Z,16.60
2022-10-29T23:23:55.540Z,16.50
2022-10-29T23:26:24.587Z,16.50
2022-10-29T23:28:51.493Z,16.40
2022-10-29T23:31:21.822Z,16.40
2022-10-29T23:33:52.944Z,16.40
2022-10-29T23:36:23.519Z,16.40
2022-10-29T23:38:59.252Z,16.40
2022-10-29T23:41:29.726Z,16.30
2022-10-29T23:43:57.442Z,16.30
2022-10-29T23:46:24.377Z,16.30
2022-10-29T23:48:51.316Z,16.30
2022-10-29T23:51:18.407Z,16.20
2022-10-29T23:53:45.428Z,16.40
2022-10-29T23:56:12.189Z,16.10
2022-10-29T23:58:39.383Z,17.90
